createdAt,value
2022-09-23T00:00:29.975Z,2.53
2022-09-23T00:05:33.143Z,2.42
2022-09-23T00:15:56.795Z,2.80
2022-09-23T00:21:02.126Z,3.17
2022-09-23T00:26:06.792Z,3.00
2022-09-23T00:31:18.146Z,3.33
2022-09-23T00:36:20.049Z,3.38
2022-09-23T00:41:22.079Z,3.15
2022-09-23T00:46:31.262Z,3.22
2022-09-23T00:51:38.733Z,3.00
2022-09-23T00:56:40.792Z,3.22
2022-09-23T01:01:44.397Z,3.60
2022-09-23T01:06:46.344Z,3.00
2022-09-23T01:11:48.462Z,3.10
2022-09-23T01:17:07.481Z,2.35
2022-09-23T01:22:37.026Z,2.38
2022-09-23T01:28:04.305Z,2.70
2022-09-23T01:33:14.852Z,2.53
2022-09-23T01:38:22.573Z,2.58
2022-09-23T01:43:33.982Z,2.83
2022-09-23T01:48:40.057Z,2.20
2022-09-23T01:53:49.600Z,2.58
2022-09-23T01:59:01.622Z,2.40
2022-09-23T02:04:10.119Z,2.58
2022-09-23T02:09:15.921Z,3.03
2022-09-23T02:14:29.423Z,2.38
2022-09-23T02:19:48.076Z,2.30
2022-09-23T02:24:50.205Z,2.47
2022-09-23T02:30:10.457Z,2.78
2022-09-23T02:35:19.829Z,2.47
2022-09-23T02:40:25.228Z,2.20
2022-09-23T02:45:27.676Z,2.28
2022-09-23T02:50:31.043Z,2.30
2022-09-23T02:55:33.340Z,2.90
2022-09-23T03:00:53.997Z,2.50
2022-09-23T03:05:58.934Z,2.70
2022-09-23T03:11:07.201Z,2.90
2022-09-23T03:16:22.528Z,2.33
2022-09-23T03:21:46.415Z,2.80
2022-09-23T03:26:50.021Z,2.80
2022-09-23T03:31:53.255Z,2.33
2022-09-23T03:37:03.197Z,2.78
2022-09-23T03:42:17.296Z,2.70
2022-09-23T03:47:19.083Z,2.55
2022-09-23T03:52:23.217Z,3.00
2022-09-23T03:57:25.773Z,2.97
2022-09-23T04:02:27.630Z,2.88
2022-09-23T04:07:29.554Z,2.60
2022-09-23T04:12:31.398Z,3.75
2022-09-23T04:17:34.303Z,3.25
2022-09-23T04:22:38.641Z,3.00
2022-09-23T04:27:40.483Z,2.67
2022-09-23T04:32:42.274Z,3.10
2022-09-23T04:37:44.335Z,3.17
2022-09-23T04:42:46.111Z,3.08
2022-09-23T04:47:47.916Z,3.10
2022-09-23T04:52:49.706Z,3.20
2022-09-23T04:57:51.668Z,2.75
2022-09-23T05:02:53.487Z,3.30
2022-09-23T05:07:56.249Z,3.55
2022-09-23T05:12:59.200Z,3.85
2022-09-23T05:18:02.583Z,3.47
2022-09-23T05:23:04.788Z,3.40
2022-09-23T05:28:06.963Z,3.58
2022-09-23T05:33:08.761Z,3.50
2022-09-23T05:38:10.549Z,3.90
2022-09-23T05:43:12.325Z,3.50
2022-09-23T05:48:14.099Z,4.35
2022-09-23T05:53:15.979Z,3.08
2022-09-23T05:58:18.013Z,3.45
2022-09-23T06:03:21.147Z,4.35
2022-09-23T06:08:23.965Z,5.63
2022-09-23T06:13:27.555Z,5.78
2022-09-23T06:18:29.333Z,4.50
2022-09-23T06:23:31.367Z,9.23
2022-09-23T06:28:38.062Z,3.40
2022-09-23T06:33:40.554Z,3.35
2022-09-23T06:38:48.625Z,2.92
2022-09-23T06:43:50.468Z,3.00
2022-09-23T06:48:52.422Z,3.22
2022-09-23T06:53:54.348Z,2.60
2022-09-23T06:58:56.182Z,2.55
2022-09-23T07:03:57.985Z,1.90
2022-09-23T07:09:01.131Z,2.00
2022-09-23T07:14:03.358Z,2.10
2022-09-23T07:19:05.361Z,2.13
2022-09-23T07:24:07.671Z,2.10
2022-09-23T07:29:13.793Z,2.15
2022-09-23T07:34:15.634Z,1.88
2022-09-23T07:39:17.494Z,2.78
2022-09-23T07:44:20.308Z,2.10
2022-09-23T07:49:22.258Z,2.13
2022-09-23T07:54:25.714Z,1.90
2022-09-23T07:59:27.620Z,1.80
2022-09-23T08:04:31.315Z,2.22
2022-09-23T08:09:41.885Z,1.77
2022-09-23T08:14:44.572Z,1.63
2022-09-23T08:19:46.461Z,1.85
2022-09-23T08:24:48.350Z,1.92
2022-09-23T08:29:50.158Z,1.80
2022-09-23T08:34:52.285Z,1.88
2022-09-23T08:39:54.083Z,1.10
2022-09-23T08:44:59.106Z,1.50
2022-09-23T08:50:08.807Z,1.30
2022-09-23T08:55:15.092Z,1.37
2022-09-23T09:00:22.874Z,1.40
2022-09-23T09:05:26.954Z,1.27
2022-09-23T09:10:37.851Z,1.38
2022-09-23T09:15:55.949Z,1.77
2022-09-23T09:21:12.655Z,3.05
2022-09-23T09:26:31.961Z,2.00
2022-09-23T09:31:48.626Z,2.75
2022-09-23T09:37:07.472Z,2.50
2022-09-23T09:42:18.614Z,3.35
2022-09-23T09:47:46.830Z,3.25
2022-09-23T09:52:49.175Z,2.22
2022-09-23T09:57:54.059Z,2.47
2022-09-23T10:02:59.430Z,2.00
2022-09-23T10:08:24.343Z,1.65
2022-09-23T10:13:27.506Z,0.95
2022-09-23T10:18:36.120Z,0.90
2022-09-23T10:23:46.633Z,0.95
2022-09-23T10:34:27.321Z,0.80
2022-09-23T10:39:48.195Z,0.88
2022-09-23T10:50:38.468Z,1.17
2022-09-23T10:55:58.109Z,1.23
2022-09-23T11:01:09.608Z,1.42
2022-09-23T11:06:14.149Z,1.10
2022-09-23T11:11:39.466Z,1.30
2022-09-23T11:16:51.216Z,1.10
2022-09-23T11:22:07.144Z,0.93
2022-09-23T11:27:35.375Z,1.15
2022-09-23T11:33:19.209Z,1.33
2022-09-23T11:38:42.350Z,1.50
2022-09-23T11:43:47.416Z,1.13
2022-09-23T11:48:59.206Z,2.25
2022-09-23T11:54:07.367Z,1.20
2022-09-23T11:59:40.591Z,10.93
2022-09-23T12:04:57.143Z,1.20
2022-09-23T12:10:03.591Z,1.23
2022-09-23T12:15:11.313Z,1.50
2022-09-23T12:20:42.367Z,2.35
2022-09-23T12:25:52.568Z,1.15
2022-09-23T12:30:58.854Z,1.67
2022-09-23T12:36:12.314Z,3.10
2022-09-23T12:41:24.037Z,1.75
2022-09-23T12:46:27.679Z,1.15
2022-09-23T12:51:34.757Z,1.00
2022-09-23T12:56:36.502Z,1.20
2022-09-23T13:01:39.033Z,0.80
2022-09-23T13:06:58.822Z,0.90
2022-09-23T13:12:03.701Z,0.95
2022-09-23T13:17:05.731Z,0.90
2022-09-23T13:22:09.575Z,0.88
2022-09-23T13:27:33.376Z,0.88
2022-09-23T13:32:41.238Z,1.23
2022-09-23T13:37:47.947Z,1.33
2022-09-23T13:42:58.045Z,1.10
2022-09-23T13:48:11.042Z,1.00
2022-09-23T13:53:20.568Z,1.00
2022-09-23T13:58:24.446Z,1.00
2022-09-23T14:03:37.203Z,1.23
2022-09-23T14:08:43.040Z,1.27
2022-09-23T14:13:47.216Z,1.33
2022-09-23T14:18:51.916Z,1.13
2022-09-23T14:23:53.809Z,1.00
2022-09-23T14:28:57.026Z,1.13
2022-09-23T14:33:58.952Z,1.40
2022-09-23T14:39:12.374Z,1.38
2022-09-23T14:44:25.813Z,1.67
2022-09-23T14:49:27.903Z,1.50
2022-09-23T14:54:36.053Z,3.92
2022-09-23T14:59:37.861Z,2.55
2022-09-23T15:04:39.719Z,2.65
2022-09-23T15:09:42.639Z,2.42
2022-09-23T15:14:51.454Z,2.30
2022-09-23T15:20:00.757Z,2.17
2022-09-23T15:25:16.935Z,2.35
2022-09-23T15:30:19.843Z,2.30
2022-09-23T15:35:26.738Z,2.10
2022-09-23T15:40:33.925Z,2.60
2022-09-23T15:45:40.474Z,2.35
2022-09-23T15:50:43.016Z,2.90
2022-09-23T15:55:45.508Z,3.20
2022-09-23T16:00:56.065Z,3.08
2022-09-23T16:06:01.268Z,3.53
2022-09-23T16:11:03.303Z,3.35
2022-09-23T16:16:06.123Z,3.67
2022-09-23T16:21:12.572Z,4.55
2022-09-23T16:26:21.629Z,4.15
2022-09-23T16:31:25.636Z,3.40
2022-09-23T16:36:29.008Z,4.07
2022-09-23T16:41:34.479Z,4.80
2022-09-23T16:46:36.902Z,5.10
2022-09-23T16:51:38.938Z,4.25
2022-09-23T16:56:46.494Z,3.92
2022-09-23T17:02:07.222Z,3.47
2022-09-23T17:07:09.571Z,4.10
2022-09-23T17:12:24.423Z,4.50
2022-09-23T17:17:28.488Z,4.18
2022-09-23T17:22:30.547Z,4.57
2022-09-23T17:27:32.379Z,3.83
2022-09-23T17:32:34.174Z,4.35
2022-09-23T17:37:39.241Z,4.60
2022-09-23T17:42:41.556Z,4.18
2022-09-23T17:47:43.335Z,3.97
2022-09-23T17:52:46.219Z,3.85
2022-09-23T17:57:51.212Z,3.78
2022-09-23T18:02:53.237Z,3.42
2022-09-23T18:07:55.707Z,3.70
2022-09-23T18:12:57.855Z,4.00
2022-09-23T18:17:59.753Z,3.92
2022-09-23T18:23:01.654Z,4.53
2022-09-23T18:28:03.644Z,4.72
2022-09-23T18:33:05.810Z,4.85
2022-09-23T18:38:07.840Z,5.25
2022-09-23T18:43:09.728Z,4.35
2022-09-23T18:48:30.265Z,4.80
2022-09-23T18:53:32.479Z,5.30
2022-09-23T18:58:34.397Z,5.32
2022-09-23T19:03:37.262Z,5.10
2022-09-23T19:08:40.176Z,6.13
2022-09-23T19:13:42.577Z,5.75
2022-09-23T19:18:46.744Z,5.25
2022-09-23T19:23:51.751Z,5.43
2022-09-23T19:28:55.711Z,5.45
2022-09-23T19:34:00.646Z,6.07
2022-09-23T19:39:05.829Z,6.22
2022-09-23T19:44:08.084Z,5.95
2022-09-23T19:49:11.478Z,6.28
2022-09-23T19:54:26.235Z,7.10
2022-09-23T19:59:28.290Z,5.32
2022-09-23T20:04:30.206Z,6.55
2022-09-23T20:09:33.900Z,7.82
2022-09-23T20:14:35.749Z,5.82
2022-09-23T20:19:37.544Z,6.28
2022-09-23T20:24:39.393Z,4.93
2022-09-23T20:29:41.304Z,5.50
2022-09-23T20:34:49.738Z,5.22
2022-09-23T20:39:52.653Z,5.55
2022-09-23T20:44:54.952Z,7.95
2022-09-23T20:49:56.735Z,7.93
2022-09-23T20:54:58.722Z,7.13
2022-09-23T21:00:00.674Z,7.93
2022-09-23T21:05:02.563Z,6.03
2022-09-23T21:10:06.929Z,5.13
2022-09-23T21:15:09.035Z,5.18
2022-09-23T21:20:11.589Z,4.93
2022-09-23T21:25:27.527Z,5.57
2022-09-23T21:30:30.147Z,4.40
2022-09-23T21:35:31.937Z,4.20
2022-09-23T21:40:52.259Z,4.97
2022-09-23T21:45:59.683Z,4.53
2022-09-23T21:51:04.466Z,4.70
2022-09-23T21:56:09.814Z,5.55
2022-09-23T22:01:12.760Z,5.22
2022-09-23T22:06:20.340Z,5.00
2022-09-23T22:11:42.499Z,4.82
2022-09-23T22:16:44.534Z,4.32
2022-09-23T22:21:46.753Z,3.85
2022-09-23T22:26:48.536Z,3.45
2022-09-23T22:32:08.874Z,3.72
2022-09-23T22:37:10.652Z,3.50
2022-09-23T22:42:13.207Z,3.60
2022-09-23T22:47:15.342Z,3.60
2022-09-23T22:52:21.213Z,3.38
2022-09-23T22:57:23.120Z,3.90
2022-09-23T23:02:25.027Z,3.35
2022-09-23T23:07:26.853Z,4.05
2022-09-23T23:12:28.711Z,3.72
2022-09-23T23:17:30.540Z,3.90
2022-09-23T23:22:32.328Z,3.50
2022-09-23T23:27:34.695Z,3.35
2022-09-23T23:32:36.826Z,3.67
2022-09-23T23:37:38.832Z,3.35
2022-09-23T23:42:40.743Z,3.97
2022-09-23T23:47:42.789Z,2.97
2022-09-23T23:52:45.540Z,3.20
2022-09-23T23:57:47.371Z,2.22
